Share

Talin, Estonija

Ulemiste (EETN) Viš 131 ft | 59.41 °N, 24.83 °E | Change Station

Current weather conditions updated 18 minutes ago

Clear
Jasno
57 °F
Feels Like 57 °F
N
7
Veter Spremenljivo Veter od SZ
Soncni vzhod 5:55 AM
Soncni zahod 8:46 PM
Moon Pojemajoča luna

Today is forecast to be nearly the same temperature as yesterday.

Zračni tlak 30.30 v
Vidljivost -9999.0 milje
Oblaki
Rosišče 28 °F
Vlažnost 33%
Padavine 0.00 v
Snow Depth Not available.
UV Not available.
Pollen Not available.
Air Quality Not available.
Flu Activity Not available.
METAR EETN 191220Z 32006KT 290V350 CAVOK 14/M02 Q1026 NOSIG

More Conditions Fewer Conditions

Zračni tlak 30.30 v
Vidljivost -9999.0 milje
Oblaki
Rosišče 28 °F
Vlažnost 33%
Padavine 0.00 v
Snow Depth Not available.
UV Not available.
Pollen Not available.
Air Quality Not available.
Flu Activity Not available.
METAR EETN 191220Z 32006KT 290V350 CAVOK 14/M02 Q1026 NOSIG

More Conditions Fewer Conditions

10-Day Weather Forecast

Almanac

Astronomija

Apr. 19, 2014 Rise Set
Actual Time 5:55 AM EEST 8:46 PM EEST
Civil Twilight 5:08 AM EEST 9:32 PM EEST
Nautical Twilight 4:06 AM EEST 10:36 PM EEST
Astronomical Twilight 2:33 AM EEST 12:14 AM EEST
Moon 12:46 AM EEST 8:19 AM EEST
Length Of Visible Light 16h 24m
Dolžina dneva
14h 50m
Tomorrow will be 5m 14s longer.
Pojemajoča luna, 80% of the Moon is Illuminated
Danes
Pojemajoča luna
Apr 22
Zadnji krajec
Apr 29
New
May 6
Prvo četrtletje
May 14
Polna luna (ščip)

Yesterday's Extremes

Country Highs Country Lows

Community

  • Bleeding Hearts
    Bleeding Hearts
  • Sunset Silhouettes
    Sunset Silhouettes
  • FL sunset Perico Isle
    FL sunset Perico Isle
  • Cloudy spring view
    Cloudy spring view
  • Old barn
    Old barn

WunderPhotos

Upload Photos

1,702,703 photos uploaded!

Nearby

Snow Depth

Not available.

Coastal Water Temperatures

Mesto Temperatura
No Stations Reporting

Earthquake Activity

City Distance Mag. Time & Date
No recent earthquake activity has been reported nearby.
Minimum magnitude displayed is 2.5.

Nearby Weather Stations

Station Location Temp Rosišče Vlažnost Veter Precip. Viš Obnovljeno Type
Tallinn, City center 56.2 °F 33 °F 42% SSV  na/pri  2.0 mph 0.00 v / hr 108 ft 3:28 PM EEST Normal
Loo 63.7 °F 25 °F 23% Sever  na/pri  3.5 mph 0.00 v / hr 109 ft 3:35 PM EEST Normal
Gulf of Finland, Viimsi, Pärnamäe 59.4 °F 35 °F 40% SZ  na/pri  9.0 mph 0.00 v / hr 141 ft 3:38 PM EEST Rapid Fire
Pikaliiva, Tallinn 60.3 °F 34 °F 38% Vzhod  na/pri  5.6 mph 0.00 v / hr 26 ft 3:38 PM EEST Rapid Fire
Pikaliiva, Tallinn 69.1 °F 39 °F 33% SV  na/pri  3.0 mph 0.00 v / hr 26 ft 3:28 PM EEST Normal
Vasalemma 59.0 °F 37 °F 44% SSZ  na/pri  2.3 mph 0.00 v / hr 88 ft 3:38 PM EEST Rapid Fire
Kibuna 65.7 °F 35 °F 32% Sever  na/pri  0.0 mph 0.00 v / hr 95 ft 3:35 PM EEST Normal

Show More Stations Show Fewer Stations

What do you think?

We're not finished. Please let us know what you like, what you don't like, and what you are still missing.